sensor_id;sensor_type;location;lat;lon;timestamp;P1;durP1;ratioP1;P2;durP2;ratioP2
73023;SDS011;61199;47.526;8.538;2022-10-31T00:00:32;32.13;;;13.13;;
73023;SDS011;61199;47.526;8.538;2022-10-31T00:02:58;32.50;;;14.50;;
73023;SDS011;61199;47.526;8.538;2022-10-31T00:05:25;42.03;;;16.03;;
73023;SDS011;61199;47.526;8.538;2022-10-31T00:07:52;44.43;;;17.10;;
73023;SDS011;61199;47.526;8.538;2022-10-31T00:10:19;44.57;;;17.37;;
73023;SDS011;61199;47.526;8.538;2022-10-31T00:12:45;38.93;;;15.90;;
73023;SDS011;61199;47.526;8.538;2022-10-31T00:15:12;39.57;;;15.80;;
73023;SDS011;61199;47.526;8.538;2022-10-31T00:17:38;36.50;;;15.50;;
73023;SDS011;61199;47.526;8.538;2022-10-31T00:20:05;37.53;;;15.30;;
73023;SDS011;61199;47.526;8.538;2022-10-31T00:22:31;37.93;;;16.00;;
73023;SDS011;61199;47.526;8.538;2022-10-31T00:24:58;34.33;;;15.77;;
73023;SDS011;61199;47.526;8.538;2022-10-31T00:27:24;31.23;;;15.07;;
73023;SDS011;61199;47.526;8.538;2022-10-31T00:29:50;36.60;;;14.07;;
73023;SDS011;61199;47.526;8.538;2022-10-31T00:32:17;45.33;;;15.13;;
73023;SDS011;61199;47.526;8.538;2022-10-31T00:34:43;33.87;;;14.90;;
73023;SDS011;61199;47.526;8.538;2022-10-31T00:37:10;35.43;;;15.47;;
73023;SDS011;61199;47.526;8.538;2022-10-31T00:39:36;40.03;;;16.13;;
73023;SDS011;61199;47.526;8.538;2022-10-31T00:42:02;35.20;;;16.10;;
73023;SDS011;61199;47.526;8.538;2022-10-31T00:44:29;33.63;;;14.90;;
73023;SDS011;61199;47.526;8.538;2022-10-31T00:46:55;39.90;;;14.73;;
73023;SDS011;61199;47.526;8.538;2022-10-31T00:49:22;40.37;;;16.30;;
73023;SDS011;61199;47.526;8.538;2022-10-31T00:51:48;34.73;;;16.63;;
73023;SDS011;61199;47.526;8.538;2022-10-31T00:54:14;37.30;;;16.17;;
73023;SDS011;61199;47.526;8.538;2022-10-31T00:56:41;33.13;;;16.87;;
73023;SDS011;61199;47.526;8.538;2022-10-31T00:59:07;33.33;;;17.27;;
73023;SDS011;61199;47.526;8.538;2022-10-31T01:01:34;39.37;;;16.07;;
73023;SDS011;61199;47.526;8.538;2022-10-31T01:04:00;35.77;;;14.97;;
73023;SDS011;61199;47.526;8.538;2022-10-31T01:06:26;45.70;;;16.07;;
73023;SDS011;61199;47.526;8.538;2022-10-31T01:08:53;29.43;;;15.97;;
73023;SDS011;61199;47.526;8.538;2022-10-31T01:11:20;24.37;;;13.00;;
73023;SDS011;61199;47.526;8.538;2022-10-31T01:13:49;27.93;;;13.93;;
73023;SDS011;61199;47.526;8.538;2022-10-31T01:16:17;31.10;;;14.70;;
73023;SDS011;61199;47.526;8.538;2022-10-31T01:18:45;26.67;;;14.43;;
73023;SDS011;61199;47.526;8.538;2022-10-31T01:21:13;39.87;;;14.33;;
73023;SDS011;61199;47.526;8.538;2022-10-31T01:23:42;28.83;;;14.00;;
73023;SDS011;61199;47.526;8.538;2022-10-31T01:26:10;36.97;;;14.67;;
73023;SDS011;61199;47.526;8.538;2022-10-31T01:28:42;40.90;;;15.43;;
73023;SDS011;61199;47.526;8.538;2022-10-31T01:31:13;38.93;;;15.20;;
73023;SDS011;61199;47.526;8.538;2022-10-31T01:33:40;33.83;;;15.13;;
73023;SDS011;61199;47.526;8.538;2022-10-31T01:38:45;42.83;;;17.20;;
73023;SDS011;61199;47.526;8.538;2022-10-31T01:41:14;37.80;;;16.40;;
73023;SDS011;61199;47.526;8.538;2022-10-31T01:46:14;40.10;;;16.80;;
73023;SDS011;61199;47.526;8.538;2022-10-31T01:48:43;47.50;;;17.20;;
73023;SDS011;61199;47.526;8.538;2022-10-31T01:51:10;37.57;;;17.20;;
73023;SDS011;61199;47.526;8.538;2022-10-31T01:53:40;36.43;;;16.93;;
73023;SDS011;61199;47.526;8.538;2022-10-31T01:56:09;42.10;;;17.47;;
73023;SDS011;61199;47.526;8.538;2022-10-31T01:58:36;38.37;;;15.60;;
73023;SDS011;61199;47.526;8.538;2022-10-31T02:01:02;41.73;;;17.23;;
73023;SDS011;61199;47.526;8.538;2022-10-31T02:03:33;32.23;;;16.43;;
73023;SDS011;61199;47.526;8.538;2022-10-31T02:05:59;41.33;;;17.37;;
73023;SDS011;61199;47.526;8.538;2022-10-31T02:08:27;36.27;;;14.80;;
73023;SDS011;61199;47.526;8.538;2022-10-31T02:10:58;36.47;;;16.57;;
73023;SDS011;61199;47.526;8.538;2022-10-31T02:13:27;29.53;;;15.27;;
73023;SDS011;61199;47.526;8.538;2022-10-31T02:15:56;40.93;;;13.70;;
73023;SDS011;61199;47.526;8.538;2022-10-31T02:18:24;36.83;;;15.03;;
73023;SDS011;61199;47.526;8.538;2022-10-31T02:21:02;23.90;;;13.90;;
73023;SDS011;61199;47.526;8.538;2022-10-31T02:34:21;22.40;;;11.40;;
73023;SDS011;61199;47.526;8.538;2022-10-31T02:36:56;34.37;;;12.40;;
73023;SDS011;61199;47.526;8.538;2022-10-31T02:39:35;30.97;;;12.53;;
73023;SDS011;61199;47.526;8.538;2022-10-31T02:42:13;21.50;;;11.97;;
73023;SDS011;61199;47.526;8.538;2022-10-31T02:44:45;22.17;;;12.00;;
73023;SDS011;61199;47.526;8.538;2022-10-31T02:47:28;29.07;;;12.23;;
73023;SDS011;61199;47.526;8.538;2022-10-31T02:49:59;18.20;;;10.60;;
73023;SDS011;61199;47.526;8.538;2022-10-31T02:52:29;24.63;;;13.33;;
73023;SDS011;61199;47.526;8.538;2022-10-31T02:54:57;36.00;;;13.10;;
73023;SDS011;61199;47.526;8.538;2022-10-31T02:57:25;33.63;;;13.53;;
73023;SDS011;61199;47.526;8.538;2022-10-31T02:59:56;24.40;;;11.97;;
73023;SDS011;61199;47.526;8.538;2022-10-31T03:05:14;21.83;;;10.30;;
73023;SDS011;61199;47.526;8.538;2022-10-31T03:07:57;20.77;;;10.30;;
73023;SDS011;61199;47.526;8.538;2022-10-31T03:13:21;17.30;;;10.00;;
73023;SDS011;61199;47.526;8.538;2022-10-31T03:19:20;20.43;;;10.10;;
73023;SDS011;61199;47.526;8.538;2022-10-31T03:24:12;14.27;;;9.20;;
73023;SDS011;61199;47.526;8.538;2022-10-31T03:26:42;17.20;;;8.50;;
73023;SDS011;61199;47.526;8.538;2022-10-31T03:29:13;13.87;;;8.27;;
73023;SDS011;61199;47.526;8.538;2022-10-31T03:31:44;12.53;;;8.23;;
73023;SDS011;61199;47.526;8.538;2022-10-31T03:34:19;33.90;;;9.30;;
73023;SDS011;61199;47.526;8.538;2022-10-31T03:36:47;13.47;;;9.27;;
73023;SDS011;61199;47.526;8.538;2022-10-31T03:39:17;30.07;;;9.60;;
73023;SDS011;61199;47.526;8.538;2022-10-31T03:41:48;11.00;;;7.63;;
73023;SDS011;61199;47.526;8.538;2022-10-31T03:44:21;14.43;;;8.27;;
73023;SDS011;61199;47.526;8.538;2022-10-31T03:46:52;13.03;;;8.23;;
73023;SDS011;61199;47.526;8.538;2022-10-31T03:49:22;10.70;;;8.17;;
73023;SDS011;61199;47.526;8.538;2022-10-31T03:54:42;12.77;;;8.60;;
73023;SDS011;61199;47.526;8.538;2022-10-31T03:57:15;13.40;;;8.17;;
73023;SDS011;61199;47.526;8.538;2022-10-31T04:00:06;11.57;;;8.30;;
73023;SDS011;61199;47.526;8.538;2022-10-31T04:02:45;16.80;;;7.60;;
73023;SDS011;61199;47.526;8.538;2022-10-31T04:05:16;13.87;;;7.57;;
73023;SDS011;61199;47.526;8.538;2022-10-31T04:07:44;21.10;;;8.20;;
73023;SDS011;61199;47.526;8.538;2022-10-31T04:10:15;13.87;;;8.27;;
73023;SDS011;61199;47.526;8.538;2022-10-31T04:12:43;15.03;;;8.10;;
73023;SDS011;61199;47.526;8.538;2022-10-31T04:15:16;11.23;;;7.90;;
73023;SDS011;61199;47.526;8.538;2022-10-31T04:17:45;15.40;;;9.37;;
73023;SDS011;61199;47.526;8.538;2022-10-31T04:20:17;14.10;;;7.57;;
73023;SDS011;61199;47.526;8.538;2022-10-31T04:22:44;11.20;;;7.60;;
73023;SDS011;61199;47.526;8.538;2022-10-31T04:25:11;15.40;;;7.87;;
73023;SDS011;61199;47.526;8.538;2022-10-31T04:27:37;13.70;;;8.33;;
73023;SDS011;61199;47.526;8.538;2022-10-31T04:30:03;14.00;;;8.67;;
73023;SDS011;61199;47.526;8.538;2022-10-31T04:32:30;17.43;;;8.17;;
73023;SDS011;61199;47.526;8.538;2022-10-31T04:34:56;19.83;;;8.13;;
73023;SDS011;61199;47.526;8.538;2022-10-31T04:37:23;8.60;;;6.87;;
73023;SDS011;61199;47.526;8.538;2022-10-31T04:39:49;8.70;;;6.20;;
73023;SDS011;61199;47.526;8.538;2022-10-31T04:42:15;15.67;;;6.53;;
73023;SDS011;61199;47.526;8.538;2022-10-31T04:44:42;9.60;;;6.60;;
73023;SDS011;61199;47.526;8.538;2022-10-31T04:47:08;10.73;;;7.00;;
73023;SDS011;61199;47.526;8.538;2022-10-31T04:49:34;10.47;;;6.13;;
73023;SDS011;61199;47.526;8.538;2022-10-31T04:52:01;9.40;;;6.53;;
73023;SDS011;61199;47.526;8.538;2022-10-31T04:54:27;17.30;;;6.40;;
73023;SDS011;61199;47.526;8.538;2022-10-31T04:56:54;35.03;;;8.07;;
73023;SDS011;61199;47.526;8.538;2022-10-31T04:59:20;12.50;;;7.70;;
73023;SDS011;61199;47.526;8.538;2022-10-31T05:01:46;22.40;;;8.57;;
73023;SDS011;61199;47.526;8.538;2022-10-31T05:04:13;18.00;;;7.80;;
73023;SDS011;61199;47.526;8.538;2022-10-31T05:06:39;11.90;;;7.03;;
73023;SDS011;61199;47.526;8.538;2022-10-31T05:09:06;15.57;;;7.47;;
73023;SDS011;61199;47.526;8.538;2022-10-31T05:11:32;15.07;;;7.63;;
73023;SDS011;61199;47.526;8.538;2022-10-31T05:13:59;25.17;;;8.10;;
73023;SDS011;61199;47.526;8.538;2022-10-31T05:16:25;15.33;;;7.87;;
73023;SDS011;61199;47.526;8.538;2022-10-31T05:18:51;28.47;;;7.50;;
73023;SDS011;61199;47.526;8.538;2022-10-31T05:21:18;21.67;;;7.60;;
73023;SDS011;61199;47.526;8.538;2022-10-31T05:23:44;11.97;;;7.80;;
73023;SDS011;61199;47.526;8.538;2022-10-31T05:26:14;9.77;;;6.43;;
73023;SDS011;61199;47.526;8.538;2022-10-31T05:28:40;10.70;;;6.50;;
73023;SDS011;61199;47.526;8.538;2022-10-31T05:31:06;12.83;;;7.23;;
73023;SDS011;61199;47.526;8.538;2022-10-31T05:33:33;12.33;;;7.47;;
73023;SDS011;61199;47.526;8.538;2022-10-31T05:35:59;28.97;;;8.07;;
73023;SDS011;61199;47.526;8.538;2022-10-31T05:38:25;23.50;;;8.00;;
73023;SDS011;61199;47.526;8.538;2022-10-31T05:40:55;26.10;;;7.40;;
73023;SDS011;61199;47.526;8.538;2022-10-31T05:43:27;18.80;;;7.50;;
73023;SDS011;61199;47.526;8.538;2022-10-31T05:45:55;11.47;;;8.13;;
73023;SDS011;61199;47.526;8.538;2022-10-31T05:48:22;11.10;;;7.30;;
73023;SDS011;61199;47.526;8.538;2022-10-31T05:50:49;16.70;;;7.33;;
73023;SDS011;61199;47.526;8.538;2022-10-31T05:53:15;13.70;;;6.70;;
73023;SDS011;61199;47.526;8.538;2022-10-31T05:55:42;13.33;;;6.80;;
73023;SDS011;61199;47.526;8.538;2022-10-31T05:58:09;10.83;;;7.57;;
73023;SDS011;61199;47.526;8.538;2022-10-31T06:00:36;11.50;;;6.70;;
73023;SDS011;61199;47.526;8.538;2022-10-31T06:03:06;10.43;;;6.73;;
73023;SDS011;61199;47.526;8.538;2022-10-31T06:05:39;10.70;;;6.57;;
73023;SDS011;61199;47.526;8.538;2022-10-31T06:08:06;10.27;;;6.90;;
73023;SDS011;61199;47.526;8.538;2022-10-31T06:10:32;9.30;;;5.93;;
73023;SDS011;61199;47.526;8.538;2022-10-31T06:12:59;8.93;;;5.83;;
73023;SDS011;61199;47.526;8.538;2022-10-31T06:15:25;11.93;;;6.07;;
73023;SDS011;61199;47.526;8.538;2022-10-31T06:17:59;9.67;;;6.63;;
73023;SDS011;61199;47.526;8.538;2022-10-31T06:20:31;7.97;;;6.23;;
73023;SDS011;61199;47.526;8.538;2022-10-31T06:22:58;8.23;;;6.10;;
73023;SDS011;61199;47.526;8.538;2022-10-31T06:25:25;11.20;;;5.60;;
73023;SDS011;61199;47.526;8.538;2022-10-31T06:27:52;6.63;;;4.90;;
73023;SDS011;61199;47.526;8.538;2022-10-31T06:30:19;9.27;;;6.70;;
73023;SDS011;61199;47.526;8.538;2022-10-31T06:32:45;8.93;;;6.33;;
73023;SDS011;61199;47.526;8.538;2022-10-31T06:35:12;10.13;;;5.50;;
73023;SDS011;61199;47.526;8.538;2022-10-31T06:37:38;9.13;;;5.70;;
73023;SDS011;61199;47.526;8.538;2022-10-31T06:40:05;9.57;;;5.90;;
73023;SDS011;61199;47.526;8.538;2022-10-31T06:42:31;13.87;;;5.37;;
73023;SDS011;61199;47.526;8.538;2022-10-31T06:44:58;8.97;;;5.10;;
73023;SDS011;61199;47.526;8.538;2022-10-31T06:47:24;6.93;;;5.03;;
73023;SDS011;61199;47.526;8.538;2022-10-31T06:49:50;10.43;;;5.80;;
73023;SDS011;61199;47.526;8.538;2022-10-31T06:52:17;8.90;;;5.90;;
73023;SDS011;61199;47.526;8.538;2022-10-31T06:54:43;8.33;;;5.43;;
73023;SDS011;61199;47.526;8.538;2022-10-31T06:57:09;11.40;;;5.80;;
73023;SDS011;61199;47.526;8.538;2022-10-31T06:59:36;6.93;;;4.93;;
73023;SDS011;61199;47.526;8.538;2022-10-31T07:02:02;7.93;;;5.37;;
73023;SDS011;61199;47.526;8.538;2022-10-31T07:04:29;8.60;;;6.23;;
73023;SDS011;61199;47.526;8.538;2022-10-31T07:06:55;8.07;;;5.60;;
73023;SDS011;61199;47.526;8.538;2022-10-31T07:09:21;7.67;;;5.67;;
73023;SDS011;61199;47.526;8.538;2022-10-31T07:11:48;9.87;;;5.83;;
73023;SDS011;61199;47.526;8.538;2022-10-31T07:14:14;6.77;;;4.90;;
73023;SDS011;61199;47.526;8.538;2022-10-31T07:16:40;11.10;;;5.03;;
73023;SDS011;61199;47.526;8.538;2022-10-31T07:19:07;10.23;;;4.90;;
73023;SDS011;61199;47.526;8.538;2022-10-31T07:21:33;9.90;;;4.97;;
73023;SDS011;61199;47.526;8.538;2022-10-31T07:24:00;8.60;;;5.80;;
73023;SDS011;61199;47.526;8.538;2022-10-31T07:26:26;9.33;;;6.00;;
73023;SDS011;61199;47.526;8.538;2022-10-31T07:28:53;8.60;;;5.67;;
73023;SDS011;61199;47.526;8.538;2022-10-31T07:31:20;10.70;;;6.10;;
73023;SDS011;61199;47.526;8.538;2022-10-31T07:33:46;9.00;;;5.50;;
73023;SDS011;61199;47.526;8.538;2022-10-31T07:36:13;11.10;;;6.17;;
73023;SDS011;61199;47.526;8.538;2022-10-31T07:38:39;10.57;;;7.07;;
73023;SDS011;61199;47.526;8.538;2022-10-31T07:41:06;10.60;;;7.20;;
73023;SDS011;61199;47.526;8.538;2022-10-31T07:43:32;10.87;;;7.13;;
73023;SDS011;61199;47.526;8.538;2022-10-31T07:45:58;12.03;;;7.43;;
73023;SDS011;61199;47.526;8.538;2022-10-31T07:48:25;13.03;;;7.73;;
73023;SDS011;61199;47.526;8.538;2022-10-31T07:50:51;12.60;;;7.50;;
73023;SDS011;61199;47.526;8.538;2022-10-31T07:53:18;11.27;;;7.30;;
73023;SDS011;61199;47.526;8.538;2022-10-31T07:55:44;12.23;;;6.40;;
73023;SDS011;61199;47.526;8.538;2022-10-31T07:58:12;11.13;;;7.97;;
73023;SDS011;61199;47.526;8.538;2022-10-31T08:00:41;13.50;;;6.33;;
73023;SDS011;61199;47.526;8.538;2022-10-31T08:03:10;8.20;;;5.97;;
73023;SDS011;61199;47.526;8.538;2022-10-31T08:05:38;9.17;;;5.83;;
73023;SDS011;61199;47.526;8.538;2022-10-31T08:08:07;8.27;;;5.10;;
73023;SDS011;61199;47.526;8.538;2022-10-31T08:10:34;6.80;;;4.80;;
73023;SDS011;61199;47.526;8.538;2022-10-31T08:13:02;8.70;;;5.87;;
73023;SDS011;61199;47.526;8.538;2022-10-31T08:15:30;10.20;;;6.57;;
73023;SDS011;61199;47.526;8.538;2022-10-31T08:17:57;7.37;;;6.30;;
73023;SDS011;61199;47.526;8.538;2022-10-31T08:20:24;8.33;;;5.63;;
73023;SDS011;61199;47.526;8.538;2022-10-31T08:22:54;8.27;;;5.60;;
73023;SDS011;61199;47.526;8.538;2022-10-31T08:25:26;7.90;;;5.80;;
73023;SDS011;61199;47.526;8.538;2022-10-31T08:27:58;11.40;;;6.53;;
73023;SDS011;61199;47.526;8.538;2022-10-31T08:30:28;9.07;;;6.33;;
73023;SDS011;61199;47.526;8.538;2022-10-31T08:33:06;14.33;;;6.80;;
73023;SDS011;61199;47.526;8.538;2022-10-31T08:35:36;10.90;;;6.07;;
73023;SDS011;61199;47.526;8.538;2022-10-31T08:38:03;10.80;;;6.00;;
73023;SDS011;61199;47.526;8.538;2022-10-31T08:40:31;11.60;;;6.30;;
73023;SDS011;61199;47.526;8.538;2022-10-31T08:43:11;11.10;;;6.43;;
73023;SDS011;61199;47.526;8.538;2022-10-31T08:45:39;9.80;;;6.60;;
73023;SDS011;61199;47.526;8.538;2022-10-31T08:48:11;15.80;;;8.20;;
73023;SDS011;61199;47.526;8.538;2022-10-31T08:50:39;13.33;;;5.97;;
73023;SDS011;61199;47.526;8.538;2022-10-31T08:53:09;10.33;;;7.00;;
73023;SDS011;61199;47.526;8.538;2022-10-31T08:55:38;14.70;;;6.80;;
73023;SDS011;61199;47.526;8.538;2022-10-31T08:58:07;12.40;;;7.60;;
73023;SDS011;61199;47.526;8.538;2022-10-31T09:00:36;9.77;;;7.00;;
73023;SDS011;61199;47.526;8.538;2022-10-31T09:03:08;12.27;;;7.70;;
73023;SDS011;61199;47.526;8.538;2022-10-31T09:05:36;20.87;;;7.93;;
73023;SDS011;61199;47.526;8.538;2022-10-31T09:08:04;17.43;;;7.03;;
73023;SDS011;61199;47.526;8.538;2022-10-31T09:10:40;17.23;;;8.23;;
73023;SDS011;61199;47.526;8.538;2022-10-31T09:13:13;8.50;;;7.00;;
73023;SDS011;61199;47.526;8.538;2022-10-31T09:15:41;15.93;;;8.17;;
73023;SDS011;61199;47.526;8.538;2022-10-31T09:18:10;28.37;;;8.60;;
73023;SDS011;61199;47.526;8.538;2022-10-31T09:20:37;13.50;;;7.63;;
73023;SDS011;61199;47.526;8.538;2022-10-31T09:23:15;13.63;;;8.20;;
73023;SDS011;61199;47.526;8.538;2022-10-31T09:25:44;15.60;;;8.30;;
73023;SDS011;61199;47.526;8.538;2022-10-31T09:28:16;14.83;;;8.60;;
73023;SDS011;61199;47.526;8.538;2022-10-31T09:30:45;14.70;;;8.23;;
73023;SDS011;61199;47.526;8.538;2022-10-31T09:33:13;14.03;;;9.63;;
73023;SDS011;61199;47.526;8.538;2022-10-31T09:35:40;21.57;;;8.73;;
73023;SDS011;61199;47.526;8.538;2022-10-31T09:38:14;14.30;;;8.57;;
73023;SDS011;61199;47.526;8.538;2022-10-31T09:40:44;12.70;;;8.87;;
73023;SDS011;61199;47.526;8.538;2022-10-31T09:46:04;12.57;;;9.10;;
73023;SDS011;61199;47.526;8.538;2022-10-31T09:51:25;14.87;;;9.67;;
73023;SDS011;61199;47.526;8.538;2022-10-31T09:54:02;20.30;;;11.27;;
73023;SDS011;61199;47.526;8.538;2022-10-31T09:56:35;22.13;;;11.60;;
73023;SDS011;61199;47.526;8.538;2022-10-31T09:59:03;21.17;;;12.17;;
73023;SDS011;61199;47.526;8.538;2022-10-31T10:06:49;23.43;;;13.40;;
73023;SDS011;61199;47.526;8.538;2022-10-31T10:09:19;26.07;;;13.30;;
73023;SDS011;61199;47.526;8.538;2022-10-31T10:11:57;28.07;;;13.30;;
73023;SDS011;61199;47.526;8.538;2022-10-31T10:25:20;18.10;;;12.00;;
73023;SDS011;61199;47.526;8.538;2022-10-31T10:27:56;18.90;;;12.70;;
73023;SDS011;61199;47.526;8.538;2022-10-31T10:30:34;22.63;;;15.20;;
73023;SDS011;61199;47.526;8.538;2022-10-31T10:33:10;30.37;;;15.00;;
73023;SDS011;61199;47.526;8.538;2022-10-31T10:35:50;21.23;;;14.97;;
73023;SDS011;61199;47.526;8.538;2022-10-31T10:38:26;26.73;;;13.70;;
73023;SDS011;61199;47.526;8.538;2022-10-31T10:40:53;22.67;;;15.27;;
73023;SDS011;61199;47.526;8.538;2022-10-31T10:43:22;37.07;;;15.30;;
73023;SDS011;61199;47.526;8.538;2022-10-31T10:49:32;23.27;;;15.50;;
73023;SDS011;61199;47.526;8.538;2022-10-31T10:52:10;27.23;;;16.80;;
73023;SDS011;61199;47.526;8.538;2022-10-31T10:55:09;42.40;;;17.33;;
73023;SDS011;61199;47.526;8.538;2022-10-31T10:57:50;29.30;;;17.53;;
73023;SDS011;61199;47.526;8.538;2022-10-31T11:00:34;33.53;;;18.63;;
73023;SDS011;61199;47.526;8.538;2022-10-31T11:03:04;30.77;;;17.40;;
73023;SDS011;61199;47.526;8.538;2022-10-31T11:05:39;26.30;;;17.37;;
73023;SDS011;61199;47.526;8.538;2022-10-31T11:08:11;28.87;;;17.00;;
73023;SDS011;61199;47.526;8.538;2022-10-31T11:10:38;29.47;;;17.70;;
73023;SDS011;61199;47.526;8.538;2022-10-31T11:13:06;30.00;;;17.63;;
73023;SDS011;61199;47.526;8.538;2022-10-31T11:18:32;28.53;;;17.93;;
73023;SDS011;61199;47.526;8.538;2022-10-31T11:21:03;31.73;;;18.03;;
73023;SDS011;61199;47.526;8.538;2022-10-31T11:23:30;29.93;;;20.73;;
73023;SDS011;61199;47.526;8.538;2022-10-31T11:28:27;35.70;;;21.30;;
73023;SDS011;61199;47.526;8.538;2022-10-31T11:30:58;34.93;;;20.00;;
73023;SDS011;61199;47.526;8.538;2022-10-31T11:34:28;34.60;;;21.00;;
73023;SDS011;61199;47.526;8.538;2022-10-31T11:36:26;37.30;;;21.20;;
73023;SDS011;61199;47.526;8.538;2022-10-31T11:38:56;28.97;;;19.83;;
73023;SDS011;61199;47.526;8.538;2022-10-31T11:41:32;41.93;;;21.60;;
73023;SDS011;61199;47.526;8.538;2022-10-31T11:44:02;33.00;;;20.93;;
73023;SDS011;61199;47.526;8.538;2022-10-31T11:46:35;36.60;;;23.07;;
73023;SDS011;61199;47.526;8.538;2022-10-31T11:49:10;47.13;;;24.70;;
73023;SDS011;61199;47.526;8.538;2022-10-31T11:51:43;39.63;;;23.67;;
73023;SDS011;61199;47.526;8.538;2022-10-31T11:54:19;43.70;;;24.13;;
73023;SDS011;61199;47.526;8.538;2022-10-31T11:56:55;43.27;;;25.40;;
73023;SDS011;61199;47.526;8.538;2022-10-31T11:59:27;39.87;;;24.40;;
73023;SDS011;61199;47.526;8.538;2022-10-31T12:01:56;35.13;;;22.47;;
73023;SDS011;61199;47.526;8.538;2022-10-31T12:04:58;35.67;;;22.43;;
73023;SDS011;61199;47.526;8.538;2022-10-31T12:07:30;35.60;;;22.43;;
73023;SDS011;61199;47.526;8.538;2022-10-31T12:09:57;43.50;;;23.40;;
73023;SDS011;61199;47.526;8.538;2022-10-31T12:12:39;54.20;;;30.20;;
73023;SDS011;61199;47.526;8.538;2022-10-31T12:17:49;41.00;;;23.53;;
73023;SDS011;61199;47.526;8.538;2022-10-31T12:20:55;33.77;;;22.23;;
73023;SDS011;61199;47.526;8.538;2022-10-31T12:24:00;36.70;;;22.03;;
73023;SDS011;61199;47.526;8.538;2022-10-31T12:26:40;33.03;;;21.47;;
73023;SDS011;61199;47.526;8.538;2022-10-31T12:46:12;30.97;;;19.00;;
73023;SDS011;61199;47.526;8.538;2022-10-31T12:48:53;33.07;;;19.53;;
73023;SDS011;61199;47.526;8.538;2022-10-31T12:59:35;27.90;;;18.87;;
73023;SDS011;61199;47.526;8.538;2022-10-31T13:05:10;31.60;;;19.23;;
73023;SDS011;61199;47.526;8.538;2022-10-31T13:08:06;40.43;;;20.07;;
73023;SDS011;61199;47.526;8.538;2022-10-31T13:13:51;34.60;;;18.10;;
73023;SDS011;61199;47.526;8.538;2022-10-31T13:16:25;38.47;;;21.00;;
73023;SDS011;61199;47.526;8.538;2022-10-31T13:19:01;31.03;;;20.00;;
73023;SDS011;61199;47.526;8.538;2022-10-31T13:21:36;34.23;;;19.27;;
73023;SDS011;61199;47.526;8.538;2022-10-31T13:24:09;31.60;;;19.73;;
73023;SDS011;61199;47.526;8.538;2022-10-31T13:26:44;29.33;;;19.23;;
73023;SDS011;61199;47.526;8.538;2022-10-31T13:31:59;36.10;;;21.07;;
73023;SDS011;61199;47.526;8.538;2022-10-31T13:34:31;31.40;;;19.60;;
73023;SDS011;61199;47.526;8.538;2022-10-31T13:37:04;33.10;;;21.80;;
73023;SDS011;61199;47.526;8.538;2022-10-31T13:39:47;32.07;;;20.07;;
73023;SDS011;61199;47.526;8.538;2022-10-31T13:42:18;37.63;;;21.50;;
73023;SDS011;61199;47.526;8.538;2022-10-31T13:44:46;36.33;;;20.47;;
73023;SDS011;61199;47.526;8.538;2022-10-31T13:47:20;29.00;;;18.03;;
73023;SDS011;61199;47.526;8.538;2022-10-31T13:49:49;30.90;;;19.07;;
73023;SDS011;61199;47.526;8.538;2022-10-31T13:52:21;40.07;;;19.33;;
73023;SDS011;61199;47.526;8.538;2022-10-31T13:54:51;37.63;;;17.43;;
73023;SDS011;61199;47.526;8.538;2022-10-31T14:02:47;31.07;;;17.17;;
73023;SDS011;61199;47.526;8.538;2022-10-31T14:07:55;34.87;;;17.50;;
73023;SDS011;61199;47.526;8.538;2022-10-31T14:10:37;31.60;;;18.03;;
73023;SDS011;61199;47.526;8.538;2022-10-31T14:13:20;27.43;;;17.57;;
73023;SDS011;61199;47.526;8.538;2022-10-31T14:15:54;26.27;;;17.27;;
73023;SDS011;61199;47.526;8.538;2022-10-31T14:18:23;28.80;;;17.10;;
73023;SDS011;61199;47.526;8.538;2022-10-31T14:20:54;33.67;;;17.77;;
73023;SDS011;61199;47.526;8.538;2022-10-31T14:28:45;29.93;;;18.03;;
73023;SDS011;61199;47.526;8.538;2022-10-31T14:34:15;34.67;;;17.80;;
73023;SDS011;61199;47.526;8.538;2022-10-31T14:42:41;25.80;;;14.87;;
73023;SDS011;61199;47.526;8.538;2022-10-31T14:47:55;36.63;;;16.30;;
73023;SDS011;61199;47.526;8.538;2022-10-31T14:53:30;26.60;;;15.83;;
73023;SDS011;61199;47.526;8.538;2022-10-31T14:55:59;29.20;;;14.80;;
73023;SDS011;61199;47.526;8.538;2022-10-31T14:58:39;24.00;;;15.00;;
73023;SDS011;61199;47.526;8.538;2022-10-31T15:01:20;25.40;;;13.77;;
73023;SDS011;61199;47.526;8.538;2022-10-31T15:03:50;26.83;;;13.70;;
73023;SDS011;61199;47.526;8.538;2022-10-31T15:06:40;27.70;;;13.90;;
73023;SDS011;61199;47.526;8.538;2022-10-31T15:09:20;24.80;;;14.70;;
73023;SDS011;61199;47.526;8.538;2022-10-31T15:11:48;26.10;;;14.90;;
73023;SDS011;61199;47.526;8.538;2022-10-31T15:14:25;33.73;;;15.67;;
73023;SDS011;61199;47.526;8.538;2022-10-31T15:16:57;28.83;;;14.17;;
73023;SDS011;61199;47.526;8.538;2022-10-31T15:19:26;21.57;;;13.20;;
73023;SDS011;61199;47.526;8.538;2022-10-31T15:21:55;40.27;;;15.27;;
73023;SDS011;61199;47.526;8.538;2022-10-31T15:24:24;34.63;;;14.60;;
73023;SDS011;61199;47.526;8.538;2022-10-31T15:26:54;34.10;;;16.27;;
73023;SDS011;61199;47.526;8.538;2022-10-31T15:29:27;24.97;;;14.80;;
73023;SDS011;61199;47.526;8.538;2022-10-31T15:31:56;22.73;;;14.50;;
73023;SDS011;61199;47.526;8.538;2022-10-31T15:34:26;25.83;;;14.97;;
73023;SDS011;61199;47.526;8.538;2022-10-31T15:37:13;25.60;;;15.03;;
73023;SDS011;61199;47.526;8.538;2022-10-31T15:39:42;30.30;;;13.80;;
73023;SDS011;61199;47.526;8.538;2022-10-31T15:42:23;26.53;;;13.73;;
73023;SDS011;61199;47.526;8.538;2022-10-31T15:44:58;35.63;;;14.20;;
73023;SDS011;61199;47.526;8.538;2022-10-31T15:47:28;31.67;;;14.70;;
73023;SDS011;61199;47.526;8.538;2022-10-31T15:49:57;29.77;;;14.83;;
73023;SDS011;61199;47.526;8.538;2022-10-31T15:52:28;24.43;;;13.93;;
73023;SDS011;61199;47.526;8.538;2022-10-31T15:54:59;25.80;;;13.93;;
73023;SDS011;61199;47.526;8.538;2022-10-31T15:57:27;30.53;;;17.10;;
73023;SDS011;61199;47.526;8.538;2022-10-31T15:59:54;29.87;;;15.33;;
73023;SDS011;61199;47.526;8.538;2022-10-31T16:02:22;29.03;;;16.57;;
73023;SDS011;61199;47.526;8.538;2022-10-31T16:04:52;33.03;;;15.97;;
73023;SDS011;61199;47.526;8.538;2022-10-31T16:07:21;30.40;;;15.80;;
73023;SDS011;61199;47.526;8.538;2022-10-31T16:09:50;31.77;;;15.17;;
73023;SDS011;61199;47.526;8.538;2022-10-31T16:12:16;29.77;;;17.03;;
73023;SDS011;61199;47.526;8.538;2022-10-31T16:14:47;32.60;;;15.23;;
73023;SDS011;61199;47.526;8.538;2022-10-31T16:17:16;36.53;;;18.20;;
73023;SDS011;61199;47.526;8.538;2022-10-31T16:22:38;30.53;;;15.60;;
73023;SDS011;61199;47.526;8.538;2022-10-31T16:27:40;44.43;;;17.57;;
73023;SDS011;61199;47.526;8.538;2022-10-31T16:30:29;22.90;;;16.03;;
73023;SDS011;61199;47.526;8.538;2022-10-31T16:35:57;28.10;;;15.63;;
73023;SDS011;61199;47.526;8.538;2022-10-31T16:38:41;34.40;;;15.83;;
73023;SDS011;61199;47.526;8.538;2022-10-31T16:41:07;27.13;;;15.90;;
73023;SDS011;61199;47.526;8.538;2022-10-31T16:43:34;35.60;;;16.23;;
73023;SDS011;61199;47.526;8.538;2022-10-31T16:46:00;26.67;;;16.50;;
73023;SDS011;61199;47.526;8.538;2022-10-31T16:48:27;34.93;;;16.47;;
73023;SDS011;61199;47.526;8.538;2022-10-31T16:50:53;31.27;;;16.50;;
73023;SDS011;61199;47.526;8.538;2022-10-31T16:53:19;26.80;;;16.20;;
73023;SDS011;61199;47.526;8.538;2022-10-31T16:55:48;31.80;;;17.07;;
73023;SDS011;61199;47.526;8.538;2022-10-31T16:58:24;27.20;;;15.37;;
73023;SDS011;61199;47.526;8.538;2022-10-31T17:00:53;28.70;;;15.60;;